Accueil
METAR-TAF:

METAR-TAF

Aéroports :

Altenbourg, Allemagne

latitude: 50-58N, longitude: 012-30E, altitude: 195 m

Observation

Le bulletin a été fait il y a 20 minutes, à 05:50 UTC
Vent 1 kt de nord/nord-est
Température 10°C
Humidité 93%
Pression 1019 hPa
Visibilité 10 km ou plus

METAR: EDAC 200550Z AUTO 02001KT 9999 // OVC048/// 10/09 Q1019

Heure: 08:10 (06:10 UTC)

Prévision

Le bulletin a été fait il y a 16 heures et 10 minutes, à 14:00 UTC
Prévision valable du 19 à 15 UTC au 19 à 24 UTC
Vent 5 kt de nord-est
Visibilité 10 km ou plus
Nuages fragmentés à une hauteur de 3500 ft
Evoluant progressivement
du 19 à 16 UTC au 19 à 18 UTC
Vent 3 kt de direction variable

TAF: EDAC 191400Z 1915/1924 05005KT 9999 BKN035 BECMG 1916/1918 VRB03KT

Observations et prévisions météorologiques de plus de 4000 aéroports (messages METAR et TAF).

Les stations disponibles sont représentées par des disques jaunes et rouges sur la carte.

Passer la souris dessus pour voir le nom de la station.

Cliquer dessus pour voir les observations et prévisions météorologiques.

Pour changer de carte: cliquez sur les boutons verts avec une croix noire pour zoomer, sur le bouton vert avec un tiret pour effectuer un zoom arrière, ou sur les flèches vertes pour les cartes adjacentes.


METAR-TAF: